Willow Island, Nebraska
Current Conditions -  °F | °C
As of 12:15 AM on Monday 26 Jan 2015 (Local Time) from KLXN Reporting Station
Scattered Clouds Scattered Clouds  
Wind Chill: 37°   Ceiling: Unl
Heat Index: 37°   Visibility: 10mi
Dew Point: 26°   Wind: 0mph
Humidity: 63%   Direction: NA
Pressure: 30.02"   Gusts: NA
Location:  40.88°N, 100.1°W
Report Text: KLXN 260615Z AUTO 00000KT 10SM SCT085 03/M04 A3002 RMK AO2 T00291036
Loading
Personal Weather Stations






























Interactive Weather Map New forecast layout! Learn more

10-Day Weather Forecast

Advertisements
Track Severe Weather on mobile